createdAt,value
2023-05-05T00:01:02.489Z,81.14
2023-05-05T00:03:29.871Z,81.06
2023-05-05T00:05:57.100Z,81.40
2023-05-05T00:08:24.106Z,81.75
2023-05-05T00:10:52.356Z,82.70
2023-05-05T00:13:20.661Z,83.67
2023-05-05T00:15:49.916Z,83.71
2023-05-05T00:18:17.905Z,82.94
2023-05-05T00:20:47.484Z,82.63
2023-05-05T00:23:19.144Z,81.61
2023-05-05T00:25:45.971Z,81.22
2023-05-05T00:28:14.446Z,81.02
2023-05-05T00:30:41.502Z,81.63
2023-05-05T00:33:08.313Z,82.22
2023-05-05T00:35:35.332Z,82.29
2023-05-05T00:38:03.356Z,82.18
2023-05-05T00:40:30.184Z,81.74
2023-05-05T00:42:57.157Z,82.57
2023-05-05T00:45:24.100Z,83.29
2023-05-05T00:47:59.145Z,83.74
2023-05-05T00:50:30.444Z,83.63
2023-05-05T00:53:01.811Z,83.22
2023-05-05T00:55:32.979Z,83.36
2023-05-05T00:58:01.211Z,83.40
2023-05-05T01:00:28.691Z,83.43
2023-05-05T01:02:55.981Z,83.17
2023-05-05T01:05:24.408Z,83.17
2023-05-05T01:08:22.298Z,83.43
2023-05-05T01:11:01.668Z,82.73
2023-05-05T01:14:11.317Z,83.23
2023-05-05T01:16:41.747Z,82.89
2023-05-05T01:19:27.062Z,83.66
2023-05-05T01:21:57.479Z,83.66
2023-05-05T01:24:42.717Z,83.48
2023-05-05T01:27:29.373Z,83.75
2023-05-05T01:30:09.015Z,83.74
2023-05-05T01:32:51.308Z,83.52
2023-05-05T01:35:29.180Z,84.46
2023-05-05T01:38:03.421Z,84.33
2023-05-05T01:40:38.056Z,83.57
2023-05-05T01:43:07.694Z,84.07
2023-05-05T01:45:39.996Z,84.04
2023-05-05T01:48:08.443Z,84.18
2023-05-05T01:50:37.097Z,84.08
2023-05-05T01:53:05.152Z,83.78
2023-05-05T01:55:33.914Z,83.27
2023-05-05T01:58:03.639Z,83.10
2023-05-05T02:00:32.053Z,83.71
2023-05-05T02:03:01.441Z,84.30
2023-05-05T02:05:29.373Z,83.57
2023-05-05T02:07:59.135Z,83.50
2023-05-05T02:10:26.495Z,82.88
2023-05-05T02:12:54.177Z,83.23
2023-05-05T02:15:22.919Z,83.44
2023-05-05T02:17:54.485Z,83.78
2023-05-05T02:20:22.735Z,83.77
2023-05-05T02:22:49.910Z,83.99
2023-05-05T02:25:18.217Z,84.01
2023-05-05T02:27:48.348Z,83.92
2023-05-05T02:30:18.318Z,84.95
2023-05-05T02:32:55.548Z,86.12
2023-05-05T02:35:27.294Z,87.06
2023-05-05T02:38:02.871Z,87.73
2023-05-05T02:40:33.165Z,86.54
2023-05-05T02:43:05.089Z,86.60
2023-05-05T02:45:32.477Z,86.43
2023-05-05T02:48:04.089Z,86.96
2023-05-05T02:50:31.984Z,88.10
2023-05-05T02:52:59.649Z,87.50
2023-05-05T02:55:32.029Z,87.62
2023-05-05T02:58:17.292Z,86.69
2023-05-05T03:01:01.016Z,87.37
2023-05-05T03:03:47.735Z,88.17
2023-05-05T03:06:21.576Z,88.58
2023-05-05T03:09:02.798Z,88.71
2023-05-05T03:11:35.809Z,89.55
2023-05-05T03:14:18.542Z,88.08
2023-05-05T03:16:47.929Z,87.24
2023-05-05T03:19:18.360Z,87.22
2023-05-05T03:21:45.602Z,87.93
2023-05-05T03:24:19.978Z,88.70
2023-05-05T03:26:48.162Z,89.94
2023-05-05T03:29:15.448Z,90.82
2023-05-05T03:31:42.655Z,91.05
2023-05-05T03:34:09.681Z,90.35
2023-05-05T03:36:36.669Z,90.77
2023-05-05T03:39:04.035Z,90.35
2023-05-05T03:41:30.825Z,90.57
2023-05-05T03:43:57.567Z,91.37
2023-05-05T03:46:24.432Z,92.05
2023-05-05T03:48:51.812Z,92.55
2023-05-05T03:51:18.613Z,92.13
2023-05-05T03:53:45.410Z,92.36
2023-05-05T03:56:12.250Z,92.07
2023-05-05T03:58:39.045Z,92.09
2023-05-05T04:01:05.886Z,92.67
2023-05-05T04:03:32.726Z,92.32
2023-05-05T04:05:59.575Z,91.70
2023-05-05T04:08:26.407Z,91.99
2023-05-05T04:10:53.216Z,92.19
2023-05-05T04:13:20.192Z,92.29
2023-05-05T04:15:47.163Z,90.98
2023-05-05T04:18:14.027Z,90.62
2023-05-05T04:20:40.983Z,90.27
2023-05-05T04:23:07.753Z,90.24
2023-05-05T04:25:34.549Z,90.46
2023-05-05T04:28:01.748Z,90.02
2023-05-05T04:30:28.578Z,90.62
2023-05-05T04:32:55.390Z,91.74
2023-05-05T04:35:22.522Z,92.79
2023-05-05T04:37:49.657Z,91.80
2023-05-05T04:40:16.598Z,91.19
2023-05-05T04:42:43.343Z,91.26
2023-05-05T04:45:10.561Z,90.64
2023-05-05T04:47:38.693Z,91.41
2023-05-05T04:50:06.622Z,91.09
2023-05-05T04:52:33.772Z,90.70
2023-05-05T04:55:01.427Z,90.63
2023-05-05T04:57:29.749Z,91.25
2023-05-05T04:59:56.697Z,91.58
2023-05-05T05:02:23.615Z,90.66
2023-05-05T05:04:50.401Z,89.86
2023-05-05T05:07:17.265Z,89.45
2023-05-05T05:09:44.102Z,89.08
2023-05-05T05:12:10.869Z,88.93
2023-05-05T05:14:38.589Z,88.95
2023-05-05T05:17:06.160Z,88.57
2023-05-05T05:19:32.986Z,87.58
2023-05-05T05:21:59.830Z,87.12
2023-05-05T05:24:30.074Z,86.90
2023-05-05T05:26:56.859Z,86.12
2023-05-05T05:29:23.793Z,85.57
2023-05-05T05:31:50.558Z,85.69
2023-05-05T05:34:17.400Z,85.06
2023-05-05T05:36:44.130Z,84.09
2023-05-05T05:39:10.876Z,83.88
2023-05-05T05:41:37.634Z,83.22
2023-05-05T05:44:04.519Z,82.70
2023-05-05T05:46:32.020Z,81.94
2023-05-05T05:48:58.797Z,81.09
2023-05-05T05:51:25.819Z,80.06
2023-05-05T05:53:52.608Z,78.61
2023-05-05T05:56:19.326Z,78.42
2023-05-05T05:58:46.102Z,79.12
2023-05-05T06:01:12.910Z,77.91
2023-05-05T06:03:39.890Z,76.45
2023-05-05T06:06:07.731Z,75.94
2023-05-05T06:08:34.568Z,74.75
2023-05-05T06:11:01.384Z,74.38
2023-05-05T06:13:28.132Z,74.28
2023-05-05T06:15:55.029Z,72.68
2023-05-05T06:18:21.890Z,71.90
2023-05-05T06:20:52.608Z,69.60
2023-05-05T06:23:19.449Z,66.45
2023-05-05T06:25:46.284Z,63.41
2023-05-05T06:28:13.028Z,62.70
2023-05-05T06:30:39.775Z,63.22
2023-05-05T06:33:06.579Z,61.82
2023-05-05T06:35:33.401Z,60.71
2023-05-05T06:38:00.198Z,60.42
2023-05-05T06:40:26.987Z,59.38
2023-05-05T06:42:53.819Z,59.12
2023-05-05T06:45:20.601Z,58.66
2023-05-05T06:47:47.647Z,58.20
2023-05-05T06:50:14.488Z,56.74
2023-05-05T06:52:42.087Z,55.27
2023-05-05T06:55:09.305Z,56.41
2023-05-05T06:57:36.063Z,56.18
2023-05-05T07:00:07.488Z,55.64
2023-05-05T07:02:34.517Z,53.95
2023-05-05T07:05:01.382Z,53.09
2023-05-05T07:07:28.392Z,52.16
2023-05-05T07:09:55.126Z,52.33
2023-05-05T07:12:22.159Z,53.50
2023-05-05T07:14:49.176Z,53.61
2023-05-05T07:17:16.234Z,52.13
2023-05-05T07:19:44.521Z,51.98
2023-05-05T07:22:11.273Z,52.11
2023-05-05T07:24:37.988Z,51.23
2023-05-05T07:27:05.856Z,51.48
2023-05-05T07:29:32.650Z,50.68
2023-05-05T07:31:59.808Z,50.19
2023-05-05T07:34:26.629Z,50.53
2023-05-05T07:36:53.463Z,51.55
2023-05-05T07:39:21.341Z,49.03
2023-05-05T07:41:48.088Z,50.88
2023-05-05T07:44:14.869Z,48.76
2023-05-05T07:46:42.009Z,48.82
2023-05-05T07:49:09.307Z,48.22
2023-05-05T07:51:36.066Z,48.94
2023-05-05T07:54:02.820Z,47.91
2023-05-05T07:56:29.848Z,48.94
2023-05-05T07:58:56.608Z,49.75
2023-05-05T08:01:23.526Z,49.14
2023-05-05T08:03:50.329Z,48.79
2023-05-05T08:06:22.312Z,48.20
2023-05-05T08:08:49.824Z,48.76
2023-05-05T08:11:16.817Z,45.86
2023-05-05T08:13:44.409Z,44.62
2023-05-05T08:16:11.661Z,46.18
2023-05-05T08:18:38.929Z,48.16
2023-05-05T08:21:07.746Z,49.08
2023-05-05T08:23:36.028Z,44.56
2023-05-05T08:26:06.393Z,43.77
2023-05-05T08:28:37.047Z,43.97
2023-05-05T08:31:04.737Z,45.13
2023-05-05T08:33:31.752Z,48.16
2023-05-05T08:35:58.672Z,44.67
2023-05-05T08:38:25.514Z,43.37
2023-05-05T08:40:53.063Z,42.66
2023-05-05T08:43:23.052Z,45.95
2023-05-05T08:45:51.854Z,43.67
2023-05-05T08:48:22.491Z,43.84
2023-05-05T08:50:56.651Z,42.68
2023-05-05T08:53:47.122Z,42.54
2023-05-05T08:56:16.218Z,41.29
2023-05-05T08:58:44.890Z,41.33
2023-05-05T09:01:14.123Z,42.11
2023-05-05T09:03:41.454Z,39.29
2023-05-05T09:06:09.880Z,40.47
2023-05-05T09:08:40.280Z,39.87
2023-05-05T09:11:07.110Z,39.33
2023-05-05T09:13:34.141Z,38.20
2023-05-05T09:16:00.978Z,41.94
2023-05-05T09:18:27.926Z,43.02
2023-05-05T09:20:56.847Z,42.33
2023-05-05T09:23:25.824Z,40.35
2023-05-05T09:26:09.129Z,41.89
2023-05-05T09:28:36.039Z,41.31
2023-05-05T09:31:16.372Z,40.01
2023-05-05T09:33:43.809Z,40.55
2023-05-05T09:36:11.851Z,39.42
2023-05-05T09:38:38.731Z,40.85
2023-05-05T09:41:06.741Z,39.74
2023-05-05T09:43:53.810Z,39.12
2023-05-05T09:46:20.759Z,40.27
2023-05-05T09:48:47.675Z,37.84
2023-05-05T09:51:14.616Z,39.08
2023-05-05T09:53:42.720Z,41.55
2023-05-05T09:56:10.562Z,38.41
2023-05-05T09:58:37.780Z,40.89
2023-05-05T10:01:04.594Z,41.58
2023-05-05T10:03:31.656Z,43.00
2023-05-05T10:05:59.899Z,40.66
2023-05-05T10:08:33.903Z,39.98
2023-05-05T10:11:06.721Z,39.59
2023-05-05T10:13:43.302Z,38.70
2023-05-05T10:16:12.858Z,37.15
2023-05-05T10:18:46.939Z,39.96
2023-05-05T10:21:20.196Z,39.81
2023-05-05T10:23:58.637Z,38.44
2023-05-05T10:26:28.025Z,38.59
2023-05-05T10:29:01.948Z,38.61
2023-05-05T10:31:34.720Z,39.01
2023-05-05T10:34:06.558Z,38.05
2023-05-05T10:36:34.484Z,38.19
2023-05-05T10:39:02.881Z,38.56
2023-05-05T10:41:33.837Z,38.90
2023-05-05T10:44:04.318Z,39.95
2023-05-05T10:46:32.361Z,40.47
2023-05-05T10:49:13.936Z,39.28
2023-05-05T10:51:51.002Z,37.53
2023-05-05T10:54:45.511Z,37.99
2023-05-05T10:57:12.560Z,38.40
2023-05-05T10:59:41.102Z,37.72
2023-05-05T11:02:28.176Z,37.91
2023-05-05T11:05:07.404Z,37.81
2023-05-05T11:07:34.740Z,38.67
2023-05-05T11:10:03.112Z,39.33
2023-05-05T11:12:31.164Z,39.04
2023-05-05T11:15:31.465Z,39.34
2023-05-05T11:18:05.718Z,39.62
2023-05-05T11:20:43.794Z,39.46
2023-05-05T11:23:10.534Z,39.42
2023-05-05T11:25:41.330Z,39.26
2023-05-05T11:28:11.494Z,38.66
2023-05-05T11:30:59.780Z,37.27
2023-05-05T11:33:31.707Z,37.81
2023-05-05T11:36:06.654Z,37.79
2023-05-05T11:38:36.556Z,37.15
2023-05-05T11:41:29.233Z,38.17
2023-05-05T11:44:19.873Z,36.26
2023-05-05T11:46:52.533Z,37.81
2023-05-05T11:49:32.550Z,38.02
2023-05-05T11:52:10.627Z,38.68
2023-05-05T11:54:47.767Z,38.52
2023-05-05T11:57:22.580Z,38.73
2023-05-05T12:00:08.620Z,38.37
2023-05-05T12:02:36.641Z,37.96
2023-05-05T12:05:04.472Z,38.21
2023-05-05T12:07:33.767Z,37.85
2023-05-05T12:10:01.390Z,36.95
2023-05-05T12:12:40.682Z,37.56
2023-05-05T12:15:09.304Z,37.46
2023-05-05T12:17:39.591Z,38.97
2023-05-05T12:20:07.986Z,38.96
2023-05-05T12:22:36.183Z,39.02
2023-05-05T12:25:06.846Z,38.85
2023-05-05T12:27:35.567Z,39.21
2023-05-05T12:30:17.794Z,39.76
2023-05-05T12:32:47.031Z,39.09
2023-05-05T12:35:14.634Z,39.20
2023-05-05T12:37:46.694Z,38.56
2023-05-05T12:40:49.227Z,38.19
2023-05-05T12:43:29.040Z,37.40
2023-05-05T12:46:13.698Z,36.45
2023-05-05T12:48:48.181Z,35.14
2023-05-05T12:51:20.991Z,32.99
2023-05-05T12:53:49.860Z,33.30
2023-05-05T12:56:43.324Z,34.04
2023-05-05T12:59:11.948Z,34.54
2023-05-05T13:01:56.870Z,34.58
2023-05-05T13:04:26.425Z,32.41
2023-05-05T13:07:14.324Z,31.94
2023-05-05T13:09:41.860Z,34.72
2023-05-05T13:12:12.152Z,35.10
2023-05-05T13:14:40.360Z,36.24
2023-05-05T13:17:07.466Z,36.35
2023-05-05T13:19:36.206Z,35.86
2023-05-05T13:22:03.600Z,35.37
2023-05-05T13:24:42.756Z,36.25
2023-05-05T13:27:17.419Z,35.91
2023-05-05T13:29:44.411Z,35.82
2023-05-05T13:32:11.259Z,36.01
2023-05-05T13:34:39.604Z,36.30
2023-05-05T13:37:06.977Z,36.34
2023-05-05T13:39:34.250Z,38.05
2023-05-05T13:42:01.752Z,37.28
2023-05-05T13:44:28.721Z,37.16
2023-05-05T13:46:55.691Z,37.38
2023-05-05T13:49:22.722Z,38.35
2023-05-05T13:51:49.645Z,38.71
2023-05-05T13:54:16.931Z,38.39
2023-05-05T13:56:44.060Z,38.01
2023-05-05T13:59:10.870Z,38.04
2023-05-05T14:01:40.715Z,37.20
2023-05-05T14:04:07.974Z,36.93
2023-05-05T14:06:35.913Z,38.06
2023-05-05T14:09:06.434Z,36.82
2023-05-05T14:11:34.119Z,37.74
2023-05-05T14:14:01.964Z,40.25
2023-05-05T14:16:28.832Z,40.32
2023-05-05T14:18:55.734Z,39.64
2023-05-05T14:21:22.484Z,38.13
2023-05-05T14:23:49.373Z,38.11
2023-05-05T14:26:16.367Z,39.18
2023-05-05T14:28:43.783Z,40.40
2023-05-05T14:31:11.385Z,40.23
2023-05-05T14:33:38.465Z,40.88
2023-05-05T14:36:05.672Z,41.41
2023-05-05T14:38:32.535Z,41.16
2023-05-05T14:40:59.348Z,41.58
2023-05-05T14:43:26.295Z,42.25
2023-05-05T14:45:53.470Z,40.88
2023-05-05T14:48:22.662Z,41.18
2023-05-05T14:50:50.112Z,41.33
2023-05-05T14:53:17.168Z,40.02
2023-05-05T14:55:44.736Z,40.37
2023-05-05T14:58:11.492Z,40.56
2023-05-05T15:00:38.416Z,40.01
2023-05-05T15:03:05.398Z,39.80
2023-05-05T15:05:32.326Z,38.43
2023-05-05T15:07:59.117Z,38.78
2023-05-05T15:10:26.148Z,37.92
2023-05-05T15:12:53.004Z,37.13
2023-05-05T15:15:19.778Z,36.41
2023-05-05T15:17:46.786Z,34.49
2023-05-05T15:20:13.604Z,35.60
2023-05-05T15:22:40.525Z,36.24
2023-05-05T15:25:11.137Z,34.20
2023-05-05T15:27:39.785Z,35.01
2023-05-05T15:30:07.403Z,35.89
2023-05-05T15:32:34.354Z,36.80
2023-05-05T15:35:01.378Z,35.88
2023-05-05T15:37:31.250Z,35.47
2023-05-05T15:39:58.347Z,34.28
2023-05-05T15:42:26.056Z,35.18
2023-05-05T15:44:52.960Z,34.35
2023-05-05T15:47:19.986Z,36.65
2023-05-05T15:49:46.964Z,36.47
2023-05-05T15:52:14.431Z,38.70
2023-05-05T15:54:41.931Z,38.29
2023-05-05T15:57:08.966Z,38.07
2023-05-05T15:59:36.570Z,39.63
2023-05-05T16:02:03.770Z,40.94
2023-05-05T16:04:30.701Z,41.27
2023-05-05T16:06:58.333Z,42.26
2023-05-05T16:09:25.173Z,42.36
2023-05-05T16:11:54.876Z,43.51
2023-05-05T16:14:22.155Z,43.64
2023-05-05T16:16:49.402Z,44.80
2023-05-05T16:19:16.378Z,44.68
2023-05-05T16:21:43.598Z,45.52
2023-05-05T16:24:10.745Z,44.70
2023-05-05T16:26:37.594Z,42.72
2023-05-05T16:29:04.442Z,41.86
2023-05-05T16:31:34.158Z,44.23
2023-05-05T16:34:01.476Z,46.82
2023-05-05T16:36:28.500Z,55.55
2023-05-05T16:38:55.277Z,63.57
2023-05-05T16:41:22.998Z,55.42
2023-05-05T16:43:50.266Z,55.75
2023-05-05T16:46:17.480Z,57.37
2023-05-05T16:48:44.394Z,51.82
2023-05-05T16:51:11.656Z,51.90
2023-05-05T16:53:38.679Z,53.32
2023-05-05T16:56:06.336Z,55.47
2023-05-05T16:58:33.124Z,53.22
2023-05-05T17:01:02.098Z,51.15
2023-05-05T17:03:28.865Z,51.58
2023-05-05T17:05:55.777Z,52.56
2023-05-05T17:08:22.831Z,53.38
2023-05-05T17:10:49.684Z,51.59
2023-05-05T17:13:16.673Z,52.35
2023-05-05T17:15:44.555Z,54.01
2023-05-05T17:18:11.425Z,53.40
2023-05-05T17:20:38.445Z,54.92
2023-05-05T17:23:05.389Z,55.48
2023-05-05T17:25:32.438Z,56.08
2023-05-05T17:27:59.223Z,55.44
2023-05-05T17:30:26.586Z,54.67
2023-05-05T17:32:53.542Z,53.47
2023-05-05T17:35:20.394Z,55.09
2023-05-05T17:37:47.261Z,55.12
2023-05-05T17:40:14.129Z,55.02
2023-05-05T17:42:40.881Z,54.40
2023-05-05T17:45:08.625Z,57.50
2023-05-05T17:47:36.900Z,66.80
2023-05-05T17:50:04.004Z,71.44
2023-05-05T17:52:31.147Z,74.51
2023-05-05T17:54:58.150Z,74.32
2023-05-05T17:57:28.050Z,75.91
2023-05-05T17:59:54.870Z,80.44
2023-05-05T18:02:21.792Z,84.50
2023-05-05T18:04:48.678Z,93.07
2023-05-05T18:07:15.597Z,94.67
2023-05-05T18:09:42.806Z,98.36
2023-05-05T18:12:09.759Z,99.28
2023-05-05T18:14:36.941Z,100.00
2023-05-05T18:17:04.984Z,100.00
2023-05-05T18:19:31.883Z,100.00
2023-05-05T18:21:59.352Z,100.00
2023-05-05T18:24:26.749Z,100.00
2023-05-05T18:26:53.780Z,100.00
2023-05-05T18:29:24.767Z,100.00
2023-05-05T18:31:53.874Z,100.00
2023-05-05T18:34:21.130Z,100.00
2023-05-05T18:36:50.668Z,100.00
2023-05-05T18:39:18.062Z,100.00
2023-05-05T18:41:45.155Z,100.00
2023-05-05T18:44:12.136Z,100.00
2023-05-05T18:46:39.317Z,100.00
2023-05-05T18:49:06.484Z,100.00
2023-05-05T18:51:33.530Z,100.00
2023-05-05T18:54:01.188Z,100.00
2023-05-05T18:56:28.180Z,100.00
2023-05-05T18:58:55.092Z,100.00
2023-05-05T19:01:22.382Z,100.00
2023-05-05T19:03:50.129Z,100.00
2023-05-05T19:06:17.932Z,100.00
2023-05-05T19:08:45.860Z,100.00
2023-05-05T19:11:14.980Z,100.00
2023-05-05T19:13:42.242Z,100.00
2023-05-05T19:16:10.516Z,100.00
2023-05-05T19:18:37.606Z,100.00
2023-05-05T19:21:04.480Z,100.00
2023-05-05T19:23:32.470Z,100.00
2023-05-05T19:25:59.405Z,100.00
2023-05-05T19:28:26.188Z,100.00
2023-05-05T19:30:52.975Z,100.00
2023-05-05T19:33:19.788Z,100.00
2023-05-05T19:35:46.828Z,100.00
2023-05-05T19:38:13.720Z,100.00
2023-05-05T19:40:41.566Z,100.00
2023-05-05T19:43:08.486Z,100.00
2023-05-05T19:45:35.800Z,100.00
2023-05-05T19:48:02.706Z,100.00
2023-05-05T19:50:30.593Z,100.00
2023-05-05T19:52:58.151Z,100.00
2023-05-05T19:55:25.192Z,100.00
2023-05-05T19:57:51.991Z,100.00
2023-05-05T20:00:19.891Z,100.00
2023-05-05T20:02:48.931Z,100.00
2023-05-05T20:05:17.804Z,100.00
2023-05-05T20:07:46.530Z,100.00
2023-05-05T20:10:16.875Z,100.00
2023-05-05T20:12:48.482Z,100.00
2023-05-05T20:15:19.519Z,100.00
2023-05-05T20:17:50.146Z,100.00
2023-05-05T20:20:21.694Z,100.00
2023-05-05T20:22:49.428Z,100.00
2023-05-05T20:25:17.002Z,100.00
2023-05-05T20:27:45.859Z,100.00
2023-05-05T20:30:13.401Z,100.00
2023-05-05T20:32:41.077Z,100.00
2023-05-05T20:35:08.501Z,100.00
2023-05-05T20:37:35.286Z,100.00
2023-05-05T20:40:02.080Z,100.00
2023-05-05T20:42:29.956Z,100.00
2023-05-05T20:44:56.880Z,100.00
2023-05-05T20:47:24.515Z,100.00
2023-05-05T20:49:52.686Z,100.00
2023-05-05T20:52:19.652Z,100.00
2023-05-05T20:54:46.562Z,100.00
2023-05-05T20:57:13.390Z,100.00
2023-05-05T20:59:40.180Z,100.00
2023-05-05T21:02:07.764Z,100.00
2023-05-05T21:04:34.734Z,100.00
2023-05-05T21:07:01.677Z,100.00
2023-05-05T21:09:28.574Z,100.00
2023-05-05T21:11:55.420Z,100.00
2023-05-05T21:14:22.415Z,100.00
2023-05-05T21:16:49.366Z,100.00
2023-05-05T21:19:16.667Z,100.00
2023-05-05T21:21:43.477Z,100.00
2023-05-05T21:24:10.754Z,100.00
2023-05-05T21:26:37.579Z,100.00
2023-05-05T21:29:04.437Z,100.00
2023-05-05T21:31:31.259Z,100.00
2023-05-05T21:33:58.000Z,100.00
2023-05-05T21:36:24.978Z,100.00
2023-05-05T21:38:51.808Z,100.00
2023-05-05T21:41:18.569Z,100.00
2023-05-05T21:43:45.426Z,100.00
2023-05-05T21:46:12.426Z,100.00
2023-05-05T21:48:40.225Z,100.00
2023-05-05T21:51:07.385Z,100.00
2023-05-05T21:53:34.366Z,100.00
2023-05-05T21:56:01.584Z,100.00
2023-05-05T21:58:29.297Z,100.00
2023-05-05T22:00:56.043Z,100.00
2023-05-05T22:03:22.953Z,100.00
2023-05-05T22:05:49.794Z,100.00
2023-05-05T22:08:16.607Z,100.00
2023-05-05T22:10:43.306Z,100.00
2023-05-05T22:13:10.810Z,100.00
2023-05-05T22:15:45.803Z,100.00
2023-05-05T22:18:13.724Z,100.00
2023-05-05T22:20:41.145Z,100.00
2023-05-05T22:23:08.062Z,100.00
2023-05-05T22:25:35.215Z,100.00
2023-05-05T22:28:02.871Z,100.00
2023-05-05T22:30:29.719Z,100.00
2023-05-05T22:32:56.599Z,100.00
2023-05-05T22:35:23.553Z,100.00
2023-05-05T22:37:50.363Z,100.00
2023-05-05T22:40:17.230Z,100.00
2023-05-05T22:42:44.234Z,100.00
2023-05-05T22:45:11.695Z,100.00
2023-05-05T22:47:38.731Z,100.00
2023-05-05T22:50:06.518Z,100.00
2023-05-05T22:52:33.289Z,100.00
2023-05-05T22:55:00.086Z,100.00
2023-05-05T22:57:26.823Z,100.00
2023-05-05T22:59:53.585Z,100.00
2023-05-05T23:02:20.368Z,100.00
2023-05-05T23:04:47.187Z,100.00
2023-05-05T23:07:14.036Z,100.00
2023-05-05T23:09:41.218Z,100.00
2023-05-05T23:12:08.054Z,100.00
2023-05-05T23:14:36.950Z,100.00
2023-05-05T23:17:03.933Z,100.00
2023-05-05T23:19:32.752Z,100.00
2023-05-05T23:21:59.995Z,100.00
2023-05-05T23:24:27.278Z,100.00
2023-05-05T23:26:54.983Z,100.00
2023-05-05T23:29:21.735Z,100.00
2023-05-05T23:31:48.794Z,100.00
2023-05-05T23:34:15.839Z,100.00
2023-05-05T23:36:42.772Z,100.00
2023-05-05T23:39:09.538Z,100.00
2023-05-05T23:41:36.415Z,100.00
2023-05-05T23:44:03.605Z,100.00
2023-05-05T23:46:30.786Z,100.00
2023-05-05T23:48:57.568Z,100.00
2023-05-05T23:51:24.427Z,100.00
2023-05-05T23:53:51.174Z,100.00
2023-05-05T23:56:17.996Z,100.00
2023-05-05T23:58:44.768Z,100.00
